To NAV CANADA Home Page Login to a new session Search on AWWS site Feedback and Comments Disclaimer Vers la page française équivalente Tips FAQ What's new on the site To the Forecasts and Observations / NOTAM section To "File a Flight Plan" website Publications and other links Update of the User's profile FIC Telephone Numbers My Weather Data Folder Route Weather Data Regional Weather Data Local Weather Data To the Forecasts and Observations / NOTAM section
Request Generated 01/17/2017 at 04:56:31 UTC . Weather information available at that time is displayed.

METAR/TAF

STONY RAPIDS/SK    (show WxCam)

METAR CYSF 170400Z AUTO 12003KT 9SM CLR M10/M11 A2924 RMK SLP924=
METAR CYSF 170300Z AUTO 08003KT 9SM CLR M12/M13 A2925 RMK SLP930=
METAR CYSF 170200Z AUTO 06004KT 9SM CLR M10/M11 A2927 RMK SLP936=

TAF CYSF 162338Z 1700/1712 VRB03KT P6SM FEW120 OVC150
FM170900 VRB03KT P6SM SCT020 BKN100 TEMPO 1709/1712 5SM -SN
BKN020 OVC100 PROB40 1709/1712 3SM -FZRA BR
RMK FCST BASED ON AUTO OBS. NXT FCST BY 170600Z=
Your time UTC time
Weather data provided by Environment Canada and NAV CANADA